^^
Datos históricos de la estación: Murcia-Puente Tocinos
Diario Informe para Septiembre 25, 2021 Unidades:  Ingés    Métrico   Ambas
Diario Semanal Mensual Anual
  Máxima: Mínima: Promedio:
Temperatura: 86.7 °F 73 °F 78.3 °F
Punto de rocio: 71.8 °F 67.1 °F 70.2 °F
Humedad: 92.5% 52.4% 77%
Velocidad viento: 13mph 0mph 4.4mph
Racha viento: 24.2mph - -
Viento- - ESE
Presión: 30 in 29.9 in -
Precipitación: 0.02 in    
 
 
Tabla de datos para Septiembre 25, 2021
Hora Temperatura Punto de rocio Presión Viento Velocidad viento Racha viento Humedad Intensidad lluvia(por hora) Nubes
00:04 76.3 °F 70.3 °F 30 in Este 1.8 mph 4.7 mph 82% 0 in
00:09 76.3 °F 70.3 °F 30 in Este 2 mph 4.3 mph 82% 0 in
00:14 76.3 °F 70.3 °F 30 in NNE 2.4 mph 4.6 mph 82% 0 in
00:19 76.3 °F 70.2 °F 30 in Este 2.4 mph 4.7 mph 81.3% 0 in
00:24 76.5 °F 70.3 °F 30 in NE 2.4 mph 4.6 mph 81.5% 0 in
00:29 76.3 °F 70.2 °F 30 in NE 2.6 mph 5.2 mph 81.5% 0 in
00:34 76.3 °F 70.3 °F 30 in Este 3.1 mph 5.8 mph 81.7% 0 in
00:39 76.3 °F 70 °F 30 in ESE 3 mph 4.6 mph 81% 0 in
00:44 76.3 °F 70 °F 30 in ESE 2.9 mph 6.2 mph 81% 0 in
00:49 76.3 °F 70 °F 30 in ENE 2.9 mph 4.7 mph 81% 0 in
00:54 76.3 °F 70 °F 30 in NE 2.9 mph 6.4 mph 81% 0 in
00:59 76.3 °F 70 °F 29.9 in NNE 3 mph 6.9 mph 81% 0 in
01:04 76.3 °F 70.2 °F 29.9 in NNO 3.1 mph 3.6 mph 81.4% 0 in
01:09 76.1 °F 70.2 °F 29.9 in NNO 2.7 mph 3.6 mph 82% 0 in
01:14 75.9 °F 70 °F 29.9 in NNO 2 mph 4 mph 82% 0 in
01:19 75.7 °F 70 °F 29.9 in NO 2.3 mph 5.9 mph 82% 0 in
01:24 75.7 °F 70.2 °F 30 in Oeste 2.9 mph 5.8 mph 82.9% 0 in
01:29 75.6 °F 70 °F 30 in Sur 3.2 mph 7.4 mph 83% 0 in
01:34 75.7 °F 70.2 °F 30 in SSE 4 mph 8.5 mph 83% 0 in
01:39 75.7 °F 70.3 °F 30 in SE 4.6 mph 9.2 mph 83% 0 in
01:44 75.9 °F 70.3 °F 30 in SE 5.9 mph 9.2 mph 83% 0 in
01:49 75.7 °F 70.3 °F 30 in SE 5.9 mph 11.5 mph 83% 0 in
01:54 75.6 °F 70.5 °F 30 in SSE 5.9 mph 10.4 mph 83.9% 0 in
01:59 75.6 °F 70.5 °F 30 in SE 5.9 mph 8.1 mph 84.3% 0 in
02:04 75.6 °F 70.7 °F 30 in ESE 5.9 mph 8.5 mph 84.9% 0 in
02:09 75.4 °F 70.5 °F 30 in ENE 5.4 mph 6.9 mph 85% 0 in
02:14 75 °F 70.3 °F 29.9 in NNE 4.3 mph 8.5 mph 85% 0 in
02:19 75 °F 70.2 °F 29.9 in NO 4.2 mph 6.9 mph 85.2% 0 in
02:24 75 °F 70.5 °F 30 in SSO 4 mph 5.9 mph 86% 0 in
02:29 75 °F 70.5 °F 30 in SSE 4 mph 6.9 mph 86% 0 in
02:34 75 °F 70.5 °F 30 in ESE 4 mph 6.2 mph 86% 0 in
02:39 75.2 °F 70.7 °F 30 in Este 3.7 mph 5.8 mph 86% 0 in
02:44 75.4 °F 70.9 °F 30 in Este 2.9 mph 2.9 mph 86% 0 in
02:49 75.4 °F 70.9 °F 30 in Este 2.4 mph 4.7 mph 86% 0 in
02:54 75.4 °F 70.9 °F 30 in NNO 1.4 mph 5.2 mph 86% 0 in
02:59 75.4 °F 70.9 °F 30 in NNO 1.8 mph 6.9 mph 86% 0 in
03:04 75.4 °F 70.9 °F 30 in NNO 2.4 mph 8.5 mph 86% 0 in
03:09 75.4 °F 70.9 °F 30 in ONO 3.3 mph 10.4 mph 86% 0 in
03:14 75.2 °F 70.7 °F 29.9 in Oeste 5.2 mph 6.9 mph 86.1% 0 in
03:19 75 °F 70.7 °F 29.9 in ONO 4.2 mph 5.4 mph 86.2% 0 in
03:24 75 °F 70.9 °F 30 in SO 2.4 mph 6.2 mph 86.9% 0 in
03:29 75 °F 70.9 °F 30 in OSO 2.8 mph 5.9 mph 87% 0 in
03:34 75 °F 70.9 °F 30 in Oeste 3.6 mph 5.9 mph 87% 0 in
03:39 75 °F 70.9 °F 30 in ONO 3.7 mph 5.8 mph 87% 0 in
03:44 75 °F 70.9 °F 30 in North 4 mph 6.9 mph 87% 0 in
03:49 75 °F 70.9 °F 30 in NNE 3.7 mph 6.9 mph 87% 0 in
03:54 74.8 °F 70.9 °F 30 in ENE 3.1 mph 5.8 mph 87.3% 0 in
03:59 74.8 °F 71.1 °F 29.9 in SE 3.4 mph 6.9 mph 88% 0.02 in
04:04 74.8 °F 71.1 °F 29.9 in SE 4 mph 8.5 mph 88% 0.02 in
04:09 74.7 °F 71.2 °F 30 in SE 4.4 mph 9.2 mph 88.6% 0.02 in
04:14 74.7 °F 71.2 °F 30 in SE 5.4 mph 8.1 mph 89% 0.02 in
04:19 74.5 °F 71.1 °F 30 in ENE 5 mph 5.9 mph 89% 0.02 in
04:24 74.5 °F 71.1 °F 30 in NNE 4.3 mph 8.1 mph 89.5% 0.02 in
04:29 74.3 °F 71.2 °F 29.9 in North 4.2 mph 6.9 mph 90% 0.02 in
04:34 74.1 °F 71.2 °F 29.9 in SE 4 mph 4.6 mph 90.5% 0.02 in
04:39 74.1 °F 71.2 °F 29.9 in SE 3.4 mph 3.6 mph 91% 0.02 in
04:44 74.1 °F 71.2 °F 29.9 in ESE 1.4 mph 4.6 mph 91% 0.02 in
04:49 74.1 °F 71.2 °F 29.9 in ENE 1.6 mph 4 mph 91% 0.02 in
04:54 74.1 °F 71.2 °F 29.9 in ESE 2 mph 5.8 mph 91% 0.02 in
04:59 74.1 °F 71.2 °F 29.9 in SSE 2.5 mph 6.9 mph 91% 0.02 in
05:04 74.1 °F 71.2 °F 29.9 in SE 3.6 mph 4.7 mph 91% 0 in
05:09 74.1 °F 71.2 °F 30 in SSE 3.6 mph 7.4 mph 91% 0 in
05:14 74.1 °F 71.4 °F 30 in SE 3.6 mph 6.9 mph 91.4% 0 in
05:19 74.1 °F 71.4 °F 30 in SE 3.5 mph 3.6 mph 91.5% 0 in
05:24 74.1 °F 71.2 °F 30 in North 3.1 mph 9.2 mph 91% 0 in
05:29 73.9 °F 71.1 °F 29.9 in NE 3.5 mph 9.2 mph 91% 0 in
05:34 73.9 °F 71.4 °F 29.9 in North 4.3 mph 6.2 mph 91.9% 0 in
05:39 73.9 °F 71.4 °F 29.9 in ONO 4.2 mph 5.9 mph 92% 0 in
05:44 73.8 °F 71.4 °F 29.9 in SO 4 mph 5.9 mph 92% 0 in
05:49 73.9 °F 71.4 °F 29.9 in SSE 4 mph 8.1 mph 92% 0 in
05:54 73.9 °F 71.4 °F 30 in Sur 4 mph 6.2 mph 92% 0 in
05:59 73.9 °F 71.4 °F 30 in SSO 4 mph 5.8 mph 92% 0 in
06:04 73.9 °F 71.4 °F 30 in Oeste 4 mph 4.6 mph 92% 0 in
06:09 73.9 °F 71.4 °F 30 in NO 3.7 mph 5.9 mph 92% 0 in
06:14 73.9 °F 71.4 °F 29.9 in SSE 3.1 mph 4.6 mph 92% 0 in
06:19 73.9 °F 71.4 °F 29.9 in SE 2.9 mph 4.6 mph 92% 0 in
06:24 73.9 °F 71.4 °F 30 in SE 2.4 mph 6.2 mph 92% 0 in
06:29 73.9 °F 71.4 °F 30 in Este 2.8 mph 5.9 mph 92% 0 in
06:34 73.8 °F 71.4 °F 30 in ESE 3.6 mph 6.9 mph 92% 0 in
06:39 73.8 °F 71.2 °F 30 in ESE 3.7 mph 5.8 mph 92% 0 in
06:44 73.8 °F 71.2 °F 30 in SSE 4 mph 3.6 mph 92.1% 0 in
06:49 73.8 °F 71.4 °F 30 in SE 3.4 mph 3.5 mph 92.5% 0 in
06:54 73.6 °F 71.2 °F 30 in SSE 2 mph 4.6 mph 92.1% 0 in
06:59 73.6 °F 71.1 °F 30 in Sur 1.9 mph 4.6 mph 92% 0 in
07:04 73.6 °F 71.2 °F 30 in ESE 1.8 mph 4.6 mph 92% 0 in
07:09 73.8 °F 71.2 °F 30 in North 1.9 mph 3.6 mph 92% 0 in
07:14 73.8 °F 71.2 °F 30 in North 2 mph 2.9 mph 92% 0 in
07:19 73.8 °F 71.2 °F 30 in North 1.8 mph 3.6 mph 92% 0 in
07:24 73.8 °F 71.2 °F 30 in NNO 1.4 mph 3.5 mph 92% 0 in
07:29 73.8 °F 71.2 °F 30 in NNO 1 mph 2 mph 92% 0 in
07:34 73.8 °F 71.2 °F 30 in Calm   5.2 mph 92% 0 in
07:39 73.8 °F 71.2 °F 30 in NE 1 mph 4.7 mph 92% 0 in
07:44 73.6 °F 71.1 °F 30 in NE 2.9 mph 4.6 mph 92% 0 in
07:49 73.6 °F 71.1 °F 30 in NE 2.5 mph 4.6 mph 92% 0 in
07:54 73.4 °F 70.9 °F 30 in Este 1.8 mph 3.5 mph 92% 0 in
07:59 73.2 °F 70.9 °F 30 in Este 1.7 mph 2.9 mph 92% 0 in
08:04 73.2 °F 70.7 °F 30 in ESE 1.4 mph 4.7 mph 92% 0 in
08:09 73 °F 70.5 °F 30 in SE 1.7 mph 5.8 mph 92% 0 in
08:14 73 °F 70.5 °F 30 in ESE 2.4 mph 4.6 mph 92% 0 in
08:19 73 °F 70.7 °F 30 in ESE 2.4 mph 3.6 mph 92% 0 in
08:24 73 °F 70.7 °F 30 in ESE 2.4 mph 4.6 mph 92% 0 in
08:29 73 °F 70.5 °F 30 in ENE 2.2 mph 3.6 mph 92% 0 in
08:34 73.2 °F 70.7 °F 30 in NNO 1.8 mph 3.5 mph 92% 0 in
08:39 73.2 °F 70.9 °F 30 in NO 1.8 mph 2.3 mph 92% 0 in
08:44 73.2 °F 70.7 °F 30 in NNE 1.8 mph 4.6 mph 91.6% 0 in
08:49 73.2 °F 70.3 °F 30 in ESE 1.9 mph 4.6 mph 91% 0 in
08:54 73.2 °F 70.3 °F 30 in ENE 2 mph 3.6 mph 91% 0 in
08:59 73.2 °F 70.3 °F 30 in NNE 2.1 mph 4.6 mph 91% 0 in
09:04 73.2 °F 70.5 °F 30 in NNE 2.4 mph 4 mph 91% 0 in
09:09 73.4 °F 70.5 °F 30 in NE 2.4 mph 4.6 mph 91% 0 in
09:14 73.6 °F 70.7 °F 30 in Este 2.4 mph 4.6 mph 91% 0 in
09:19 73.6 °F 70.9 °F 30 in ENE 2.4 mph 4.6 mph 91% 0 in
09:24 73.8 °F 71.1 °F 30 in NNE 2.4 mph 6.2 mph 91% 0 in
09:29 73.9 °F 71.1 °F 30 in NNE 2.8 mph 5.9 mph 91% 0 in
09:34 73.9 °F 71.1 °F 30 in NE 3.6 mph 5.9 mph 91% 0 in
09:39 73.9 °F 71.1 °F 30 in NE 3.7 mph 6.2 mph 91.1% 0 in
09:44 74.1 °F 71.6 °F 30 in NNE 4 mph 5.2 mph 91.9% 0 in
09:49 74.1 °F 71.2 °F 30 in NE 3.7 mph 5.8 mph 91% 0 in
09:54 74.1 °F 71.2 °F 30 in NE 3.1 mph 5.8 mph 91% 0 in
09:59 74.3 °F 71.4 °F 30 in NE 3.1 mph 4.7 mph 90.6% 0 in
10:04 74.5 °F 71.4 °F 30 in NNE 3.1 mph 5.8 mph 90% 0 in
10:09 74.8 °F 71.6 °F 30 in NNE 3 mph 3.6 mph 90% 0 in
10:14 75.2 °F 71.8 °F 30 in NNO 2.9 mph 4.6 mph 89.3% 0 in
10:19 75.6 °F 71.6 °F 30 in North 2.6 mph 4.6 mph 87.8% 0 in
10:24 75.9 °F 71.4 °F 30 in North 2 mph 4 mph 86.1% 0 in
10:29 75.9 °F 70.7 °F 30 in Oeste 2 mph 4.6 mph 83.5% 0 in
10:34 76.5 °F 70.7 °F 30 in ONO 2 mph 5.8 mph 82.6% 0 in
10:39 76.8 °F 70.7 °F 30 in ONO 2 mph 4.6 mph 81.7% 0 in
10:44 77.2 °F 70.5 °F 30 in NE 2 mph 6.2 mph 80.1% 0 in
10:49 77.5 °F 70 °F 30 in SE 2.1 mph 4.6 mph 77.7% 0 in
10:54 77.9 °F 70.2 °F 30 in Este 2.4 mph 5.9 mph 77.3% 0 in
10:59 78.4 °F 70.9 °F 30 in NE 2.4 mph 6.4 mph 77.9% 0 in
11:04 78.4 °F 70.7 °F 30 in NE 2.4 mph 6.9 mph 77% 0 in
11:09 78.4 °F 70.7 °F 30 in NNE 2.9 mph 6.2 mph 77% 0 in
11:14 79 °F 70.9 °F 30 in NE 4 mph 9.2 mph 76.3% 0 in
11:19 79.2 °F 70.9 °F 30 in ENE 4 mph 6.9 mph 76% 0 in
11:24 79.3 °F 70.5 °F 30 in SE 4 mph 4.6 mph 74.5% 0 in
11:29 79.5 °F 69.8 °F 30 in SE 3.7 mph 8.1 mph 72% 0 in
11:34 79.7 °F 69.6 °F 30 in NE 2.9 mph 8.1 mph 71.2% 0 in
11:39 79.5 °F 69.6 °F 30 in NNE 3.5 mph 6.9 mph 71.6% 0 in
11:44 80.1 °F 70.2 °F 30 in NE 4.7 mph 6.9 mph 71.9% 0 in
11:49 80.4 °F 70.5 °F 30 in NE 4.1 mph 5.8 mph 72% 0 in
11:54 80.6 °F 70.7 °F 30 in NNE 2.9 mph 5.9 mph 72% 0 in
11:59 80.4 °F 70.3 °F 30 in NNE 3.3 mph 9.2 mph 71.3% 0 in
12:04 80.8 °F 70.3 °F 30 in Este 4 mph 6.9 mph 70.8% 0 in
12:09 80.8 °F 70.2 °F 30 in SE 3.9 mph 6.2 mph 70% 0 in
12:14 80.8 °F 70 °F 30 in ESE 3.6 mph 8.1 mph 70% 0 in
12:19 80.8 °F 70.2 °F 30 in SSE 3.4 mph 3.6 mph 70.3% 0 in
12:24 81 °F 70.3 °F 30 in Este 3.1 mph 6.9 mph 70.4% 0 in
12:29 81.3 °F 70.2 °F 30 in Este 3.1 mph 5.9 mph 69.1% 0 in
12:34 81.9 °F 70.5 °F 30 in ENE 3.1 mph 6.2 mph 68.6% 0 in
12:39 82 °F 70.3 °F 30 in Este 3.1 mph 8.5 mph 67.8% 0 in
12:44 82.4 °F 70.5 °F 30 in Este 3.1 mph 9.2 mph 67.4% 0 in
12:49 82.8 °F 70 °F 30 in SE 3.8 mph 9.7 mph 65.8% 0 in
12:54 82.8 °F 69.8 °F 30 in Este 5.2 mph 10 mph 65.2% 0 in
12:59 82.6 °F 69.4 °F 30 in ESE 5.3 mph 10.4 mph 64.8% 0 in
13:04 82.4 °F 69.6 °F 30 in Este 5.4 mph 11.8 mph 65.4% 0 in
13:09 82.6 °F 69.6 °F 30 in ENE 5 mph 9.2 mph 65% 0 in
13:14 82.6 °F 69.4 °F 30 in ENE 4.3 mph 8.1 mph 64.4% 0 in
13:19 82.8 °F 69.6 °F 30 in Este 4.4 mph 11.8 mph 64.8% 0 in
13:24 82.8 °F 69.3 °F 30 in SE 4.7 mph 13 mph 64.1% 0 in
13:29 82.8 °F 69.4 °F 30 in SE 5.5 mph 11.5 mph 64.5% 0 in
13:34 82.9 °F 69.4 °F 30 in ESE 7.4 mph 13 mph 64.1% 0 in
13:39 82.9 °F 69.4 °F 30 in SE 7 mph 8.1 mph 64% 0 in
13:44 83.3 °F 70 °F 30 in ESE 6.2 mph 11.8 mph 64.4% 0 in
13:49 83.7 °F 70.2 °F 30 in ESE 6.1 mph 10.4 mph 64% 0 in
13:54 84 °F 69.8 °F 30 in ESE 5.9 mph 12.7 mph 62.4% 0 in
13:59 84 °F 70 °F 30 in ENE 6 mph 11.5 mph 63% 0 in
14:04 84.6 °F 70.2 °F 30 in ESE 6.2 mph 13.8 mph 62.3% 0 in
14:09 84.6 °F 69.8 °F 30 in Este 6.4 mph 14 mph 61.4% 0 in
14:14 84.6 °F 69.6 °F 30 in Este 6.9 mph 14 mph 61% 0 in
14:19 84.7 °F 69.4 °F 30 in SE 7.1 mph 13.8 mph 60.1% 0 in
14:24 84.6 °F 69.1 °F 30 in SE 7.4 mph 13 mph 60% 0 in
14:29 84.7 °F 69.3 °F 30 in ESE 7.4 mph 10.7 mph 60% 0 in
14:34 84.7 °F 69.1 °F 30 in SE 7.4 mph 10.7 mph 59.6% 0 in
14:39 84.7 °F 68.9 °F 30 in SE 7.1 mph 11.5 mph 59.1% 0 in
14:44 84.9 °F 68.4 °F 30 in SSE 6.4 mph 10.4 mph 57.8% 0 in
14:49 85.1 °F 68 °F 30 in SSO 6 mph 9.2 mph 56.9% 0 in
14:54 85.3 °F 68.2 °F 30 in ONO 5.2 mph 5.9 mph 56.7% 0 in
14:59 85.5 °F 68 °F 30 in ESE 4.2 mph 5.8 mph 56% 0 in
15:04 85.8 °F 68 °F 30 in SO 2.4 mph 6.9 mph 55.7% 0 in
15:09 86 °F 67.5 °F 30 in Oeste 2.6 mph 6.9 mph 54% 0 in
15:14 86.2 °F 68 °F 29.9 in NNE 3.1 mph 5.8 mph 54.7% 0 in
15:19 86.4 °F 67.8 °F 29.9 in North 3 mph 4.6 mph 54.1% 0 in
15:24 86.5 °F 67.8 °F 29.9 in NNE 2.9 mph 8.1 mph 54% 0 in
15:29 86.4 °F 68 °F 29.9 in NE 3.1 mph 6.2 mph 54.4% 0 in
15:34 86.5 °F 68 °F 29.9 in ENE 3.6 mph 8.5 mph 54.2% 0 in
15:39 86.5 °F 67.8 °F 29.9 in ESE 3.6 mph 5.8 mph 54% 0 in
15:44 86.7 °F 67.6 °F 29.9 in NE 3.6 mph 9.7 mph 53.2% 0 in
15:49 86.5 °F 67.3 °F 29.9 in NE 3.9 mph 8.5 mph 52.5% 0 in
15:54 86.7 °F 67.5 °F 29.9 in NNE 4.7 mph 9.2 mph 53% 0 in
15:59 86.7 °F 67.3 °F 29.9 in ENE 4.8 mph 9.2 mph 52.4% 0 in
16:04 86.5 °F 67.1 °F 29.9 in Este 5.2 mph 9.2 mph 52.8% 0 in
16:09 86.4 °F 67.3 °F 29.9 in ENE 4.9 mph 8.1 mph 53% 0 in
16:14 86.5 °F 67.5 °F 29.9 in ENE 4.3 mph 8.1 mph 53% 0 in
16:19 86.5 °F 67.6 °F 29.9 in NE 4.3 mph 9.2 mph 53.6% 0 in
16:24 86.5 °F 67.8 °F 29.9 in NE 4.3 mph 9.7 mph 53.7% 0 in
16:29 86.5 °F 68.5 °F 29.9 in NE 4.8 mph 9.7 mph 55.1% 0 in
16:34 86.5 °F 68.5 °F 29.9 in NE 5.9 mph 8.1 mph 55.2% 0 in
16:39 86.5 °F 68.9 °F 29.9 in NE 5.7 mph 10.7 mph 55.9% 0 in
16:44 86.5 °F 70 °F 29.9 in ESE 5.2 mph 13.8 mph 58.1% 0 in
16:49 86.2 °F 70.7 °F 29.9 in ESE 6.3 mph 16.1 mph 59.8% 0 in
16:54 86 °F 70.9 °F 29.9 in ESE 8.5 mph 17.5 mph 60.8% 0 in
16:59 85.6 °F 70.9 °F 29.9 in ESE 9.4 mph 18.4 mph 61.4% 0 in
17:04 85.5 °F 71.1 °F 29.9 in ESE 11.2 mph 18.4 mph 62% 0 in
17:09 85.5 °F 70.9 °F 29.9 in ESE 10.7 mph 19.2 mph 62% 0 in
17:14 84.9 °F 70.7 °F 29.9 in SE 9.7 mph 23 mph 62.6% 0 in
17:19 84.6 °F 70.5 °F 29.9 in SE 10.6 mph 19.7 mph 63% 0 in
17:24 84.6 °F 70.9 °F 29.9 in ESE 12.3 mph 17.3 mph 63.8% 0 in
17:29 84.4 °F 70.9 °F 29.9 in SE 12 mph 24.2 mph 64% 0 in
17:34 84 °F 70.5 °F 29.9 in ESE 11.2 mph 18.5 mph 64.2% 0 in
17:39 83.8 °F 70.5 °F 29.9 in ESE 11.2 mph 20.4 mph 64.5% 0 in
17:44 83.5 °F 70.7 °F 29.9 in ESE 11.4 mph 20.7 mph 65.7% 0 in
17:49 83.3 °F 70.9 °F 29.9 in ESE 11.9 mph 20.7 mph 66% 0 in
17:54 82.9 °F 70.7 °F 29.9 in SE 13 mph 18.4 mph 66.3% 0 in
17:59 82.9 °F 70.7 °F 29.9 in ESE 12.8 mph 20.7 mph 66.6% 0 in
18:04 82.8 °F 70.7 °F 29.9 in ESE 12.5 mph 16.3 mph 67% 0 in
18:09 82.6 °F 70.5 °F 29.9 in ESE 12.1 mph 18.4 mph 67.2% 0 in
18:14 82.2 °F 70.5 °F 29.9 in ESE 11.2 mph 17 mph 68% 0 in
18:19 82 °F 70.9 °F 29.9 in ESE 11.2 mph 18.4 mph 68.9% 0 in
18:24 82 °F 70.5 °F 29.9 in ESE 11.2 mph 18.4 mph 68.3% 0 in
18:29 82 °F 70.2 °F 29.9 in SE 11.1 mph 16.1 mph 67.4% 0 in
18:34 82 °F 70 °F 29.9 in SE 10.7 mph 17.3 mph 67% 0 in
18:39 81.9 °F 69.8 °F 29.9 in SE 10.5 mph 16.1 mph 67.2% 0 in
18:44 81.9 °F 70.3 °F 29.9 in SE 10.2 mph 13 mph 68% 0 in
18:49 81.9 °F 70.3 °F 29.9 in SE 9.5 mph 15.9 mph 68% 0 in
18:54 81.9 °F 70.2 °F 29.9 in SE 8.1 mph 17.5 mph 68% 0 in
18:59 81.3 °F 70 °F 29.9 in SE 9.1 mph 17.3 mph 68.8% 0 in
19:04 81.1 °F 70.2 °F 29.9 in SE 10.7 mph 16.1 mph 69.4% 0 in
19:09 81 °F 70.3 °F 29.9 in SE 10.1 mph 13.8 mph 70% 0 in
19:14 81 °F 70.3 °F 29.9 in SE 8.7 mph 11.5 mph 70% 0 in
19:19 81 °F 70.3 °F 29.9 in SE 7.8 mph 10.4 mph 70% 0 in
19:24 81 °F 70 °F 29.9 in Sur 5.9 mph 13 mph 69.3% 0 in
19:29 80.8 °F 69.3 °F 29.9 in SSE 6.2 mph 17.3 mph 68.1% 0 in
19:34 80.4 °F 68.9 °F 29.9 in SE 6.9 mph 12.7 mph 68% 0 in
19:39 80.4 °F 68.9 °F 29.9 in SE 6.6 mph 9.2 mph 68.2% 0 in
19:44 80.2 °F 69.1 °F 29.9 in SE 5.9 mph 15.2 mph 69% 0 in
19:49 80.1 °F 69.3 °F 29.9 in SSE 6.2 mph 15 mph 69.7% 0 in
19:54 79.7 °F 69.1 °F 30 in SSE 6.9 mph 10 mph 70% 0 in
19:59 79.3 °F 68.9 °F 30 in Sur 6.6 mph 10.4 mph 70% 0 in
20:04 79.3 °F 69.1 °F 30 in Sur 6.2 mph 6.9 mph 70.8% 0 in
20:09 79.3 °F 69.1 °F 30 in Sur 5.5 mph 9.7 mph 71% 0 in
20:14 79.2 °F 68.9 °F 30 in SSE 4 mph 9.2 mph 71% 0 in
20:19 79 °F 69.1 °F 30 in SE 4.2 mph 8.1 mph 71.6% 0 in
20:24 79 °F 69.3 °F 30 in SSE 4.7 mph 10.4 mph 72% 0 in
20:29 78.8 °F 69.1 °F 30 in SE 4.8 mph 8.1 mph 72% 0 in
20:34 78.6 °F 68.9 °F 30 in SSE 5.2 mph 8.5 mph 72.1% 0 in
20:39 78.4 °F 69.1 °F 30 in SSE 5.2 mph 8.5 mph 73% 0 in
20:44 78.4 °F 69.1 °F 30 in SE 5.2 mph 6.2 mph 73% 0 in
20:49 78.4 °F 69.1 °F 30 in SSE 4.7 mph 5.2 mph 73% 0 in
20:54 78.4 °F 69.1 °F 30 in SSE 3.6 mph 4.6 mph 73% 0 in
20:59 78.4 °F 69.1 °F 30 in SE 3 mph 4.7 mph 73% 0 in
21:04 78.4 °F 69.1 °F 30 in NNE 2 mph 4.6 mph 73% 0 in
21:09 78.3 °F 69.3 °F 30 in NE 2.1 mph 4.7 mph 73.9% 0 in
21:14 78.1 °F 69.1 °F 30 in NE 2.4 mph 4.6 mph 74% 0 in
21:19 78.1 °F 69.3 °F 30 in ENE 2.5 mph 4.6 mph 74.4% 0 in
21:24 77.7 °F 69.3 °F 30 in NE 2.9 mph 5.2 mph 75% 0 in
21:29 77.5 °F 69.1 °F 30 in NE 3.2 mph 6.2 mph 75% 0 in
21:34 77.5 °F 69.3 °F 30 in NE 4 mph 6.4 mph 75.8% 0 in
21:39 77.4 °F 69.3 °F 30 in NE 4.2 mph 6.9 mph 76% 0 in
21:44 77.2 °F 69.1 °F 30 in ENE 4.7 mph 5.8 mph 76.2% 0 in
21:49 77.2 °F 69.4 °F 30 in ENE 4.2 mph 5.8 mph 77% 0 in
21:54 77.2 °F 69.3 °F 30 in ENE 3.1 mph 4.6 mph 77% 0 in
21:59 77 °F 69.1 °F 30 in ENE 3 mph 4.6 mph 77% 0 in
22:04 76.8 °F 69.1 °F 30 in ENE 2.9 mph 3.6 mph 77.1% 0 in
22:09 76.8 °F 69.4 °F 30 in Este 2.6 mph 5.4 mph 78% 0 in
22:14 76.8 °F 69.4 °F 30 in ESE 2 mph 5.9 mph 78% 0 in
22:19 76.8 °F 69.4 °F 30 in ESE 2.4 mph 5.8 mph 78% 0 in
22:24 76.8 °F 69.4 °F 30 in Este 3.1 mph 6.9 mph 78% 0 in
22:29 76.6 °F 69.3 °F 30 in ESE 3.2 mph 6.9 mph 78% 0 in
22:34 76.6 °F 69.4 °F 30 in ESE 3.6 mph 6.2 mph 78.8% 0 in
22:39 76.5 °F 69.4 °F 30 in SE 3.7 mph 6.2 mph 79% 0 in
22:44 76.5 °F 69.4 °F 30 in SE 4 mph 6.2 mph 79% 0 in
22:49 76.5 °F 69.4 °F 30 in ESE 3.9 mph 4.7 mph 79% 0 in
22:54 76.5 °F 69.4 °F 30 in ESE 3.6 mph 5.2 mph 79% 0 in
22:59 76.5 °F 69.4 °F 30 in SE 3.4 mph 4.7 mph 79% 0 in
23:04 76.5 °F 69.4 °F 30 in ESE 2.9 mph 5.8 mph 79% 0 in
23:09 76.5 °F 69.4 °F 30 in Este 3 mph 5.4 mph 79% 0 in
23:14 76.3 °F 69.6 °F 30 in Este 3.1 mph 6.2 mph 79.9% 0 in
23:19 76.1 °F 69.6 °F 30 in ESE 3.4 mph 5.9 mph 80% 0 in
23:24 75.9 °F 69.4 °F 30 in ESE 4 mph 8.1 mph 80.3% 0 in
23:25 75.9 °F 69.3 °F 30 in ESE 4 mph 5.9 mph 80% 0 in
23:30 75.9 °F 69.6 °F 30 in SSE 4.7 mph 5.8 mph 81% 0 in
Murcia-Puente Tocinos, España
Compliments of Weather Underground - 2.75 mb

La estación de MeteoMurcia.com, publica sus datos en los siguientes proyectos:

Weather Underground PWS IMURCIAP2 Meteoclimatic www.awekas.at

W3Counter
Web Analytics